sensor_id;sensor_type;location;lat;lon;timestamp;temperature;humidity
56374;DHT22;58212;47.034;7.376;2023-02-14T00:01:46;2.10;99.90
56374;DHT22;58212;47.034;7.376;2023-02-14T00:04:14;1.90;99.90
56374;DHT22;58212;47.034;7.376;2023-02-14T00:06:41;2.00;99.90
56374;DHT22;58212;47.034;7.376;2023-02-14T00:09:11;1.90;99.90
56374;DHT22;58212;47.034;7.376;2023-02-14T00:11:39;1.80;99.90
56374;DHT22;58212;47.034;7.376;2023-02-14T00:14:07;1.80;99.90
56374;DHT22;58212;47.034;7.376;2023-02-14T00:16:53;1.60;99.90
56374;DHT22;58212;47.034;7.376;2023-02-14T00:19:21;1.70;99.90
56374;DHT22;58212;47.034;7.376;2023-02-14T00:21:49;1.80;99.90
56374;DHT22;58212;47.034;7.376;2023-02-14T00:24:18;1.90;99.90
56374;DHT22;58212;47.034;7.376;2023-02-14T00:26:46;2.00;99.90
56374;DHT22;58212;47.034;7.376;2023-02-14T00:29:15;1.80;99.90
56374;DHT22;58212;47.034;7.376;2023-02-14T00:31:43;1.70;99.90
56374;DHT22;58212;47.034;7.376;2023-02-14T00:34:13;1.90;99.90
56374;DHT22;58212;47.034;7.376;2023-02-14T00:36:41;2.00;99.90
56374;DHT22;58212;47.034;7.376;2023-02-14T00:39:11;2.10;99.90
56374;DHT22;58212;47.034;7.376;2023-02-14T00:41:40;2.00;99.90
56374;DHT22;58212;47.034;7.376;2023-02-14T00:44:09;2.00;99.90
56374;DHT22;58212;47.034;7.376;2023-02-14T00:46:38;2.00;99.90
56374;DHT22;58212;47.034;7.376;2023-02-14T00:49:05;2.00;99.90
56374;DHT22;58212;47.034;7.376;2023-02-14T00:51:35;2.00;99.90
56374;DHT22;58212;47.034;7.376;2023-02-14T00:54:04;2.00;99.90
56374;DHT22;58212;47.034;7.376;2023-02-14T00:56:32;2.00;99.90
56374;DHT22;58212;47.034;7.376;2023-02-14T00:58:59;2.10;99.90
56374;DHT22;58212;47.034;7.376;2023-02-14T01:01:51;2.10;99.90
56374;DHT22;58212;47.034;7.376;2023-02-14T01:04:19;2.00;99.90
56374;DHT22;58212;47.034;7.376;2023-02-14T01:06:48;2.00;99.90
56374;DHT22;58212;47.034;7.376;2023-02-14T01:09:15;2.00;99.90
56374;DHT22;58212;47.034;7.376;2023-02-14T01:11:42;1.80;99.90
56374;DHT22;58212;47.034;7.376;2023-02-14T01:14:10;1.80;99.90
56374;DHT22;58212;47.034;7.376;2023-02-14T01:16:38;1.70;99.90
56374;DHT22;58212;47.034;7.376;2023-02-14T01:19:05;1.80;99.90
56374;DHT22;58212;47.034;7.376;2023-02-14T01:21:35;1.90;99.90
56374;DHT22;58212;47.034;7.376;2023-02-14T01:24:05;1.90;99.90
56374;DHT22;58212;47.034;7.376;2023-02-14T01:26:35;1.90;99.90
56374;DHT22;58212;47.034;7.376;2023-02-14T01:29:02;2.00;99.90
56374;DHT22;58212;47.034;7.376;2023-02-14T01:31:31;1.90;99.90
56374;DHT22;58212;47.034;7.376;2023-02-14T01:34:01;1.90;99.90
56374;DHT22;58212;47.034;7.376;2023-02-14T01:36:30;1.90;99.90
56374;DHT22;58212;47.034;7.376;2023-02-14T01:38:59;1.90;99.90
56374;DHT22;58212;47.034;7.376;2023-02-14T01:41:29;1.70;99.90
56374;DHT22;58212;47.034;7.376;2023-02-14T01:44:54;1.70;99.90
56374;DHT22;58212;47.034;7.376;2023-02-14T01:47:22;1.60;99.90
56374;DHT22;58212;47.034;7.376;2023-02-14T01:49:54;1.70;99.90
56374;DHT22;58212;47.034;7.376;2023-02-14T01:52:26;1.70;99.90
56374;DHT22;58212;47.034;7.376;2023-02-14T01:54:57;1.70;99.90
56374;DHT22;58212;47.034;7.376;2023-02-14T01:57:32;1.60;99.90
56374;DHT22;58212;47.034;7.376;2023-02-14T02:00:02;1.60;99.90
56374;DHT22;58212;47.034;7.376;2023-02-14T02:02:44;1.60;99.90
56374;DHT22;58212;47.034;7.376;2023-02-14T02:05:11;1.50;99.90
56374;DHT22;58212;47.034;7.376;2023-02-14T02:07:42;1.50;99.90
56374;DHT22;58212;47.034;7.376;2023-02-14T02:10:10;1.50;99.90
56374;DHT22;58212;47.034;7.376;2023-02-14T02:12:39;1.50;99.90
56374;DHT22;58212;47.034;7.376;2023-02-14T02:15:07;1.60;99.90
56374;DHT22;58212;47.034;7.376;2023-02-14T02:17:42;1.50;99.90
56374;DHT22;58212;47.034;7.376;2023-02-14T02:20:52;1.50;99.90
56374;DHT22;58212;47.034;7.376;2023-02-14T02:26:53;1.60;99.90
56374;DHT22;58212;47.034;7.376;2023-02-14T02:32:49;1.80;99.90
56374;DHT22;58212;47.034;7.376;2023-02-14T02:35:39;1.80;99.90
56374;DHT22;58212;47.034;7.376;2023-02-14T02:38:20;1.70;99.90
56374;DHT22;58212;47.034;7.376;2023-02-14T02:40:59;1.60;99.90
56374;DHT22;58212;47.034;7.376;2023-02-14T02:43:37;1.50;99.90
56374;DHT22;58212;47.034;7.376;2023-02-14T02:46:14;1.50;99.90
56374;DHT22;58212;47.034;7.376;2023-02-14T02:49:08;1.50;99.90
56374;DHT22;58212;47.034;7.376;2023-02-14T02:51:45;1.50;99.90
56374;DHT22;58212;47.034;7.376;2023-02-14T02:54:33;1.50;99.90
56374;DHT22;58212;47.034;7.376;2023-02-14T02:57:10;1.50;99.90
56374;DHT22;58212;47.034;7.376;2023-02-14T02:59:40;1.50;99.90
56374;DHT22;58212;47.034;7.376;2023-02-14T03:02:11;1.50;99.90
56374;DHT22;58212;47.034;7.376;2023-02-14T03:04:42;1.40;99.90
56374;DHT22;58212;47.034;7.376;2023-02-14T03:07:33;1.40;99.90
56374;DHT22;58212;47.034;7.376;2023-02-14T03:10:10;1.40;99.90
56374;DHT22;58212;47.034;7.376;2023-02-14T03:13:00;1.30;99.90
56374;DHT22;58212;47.034;7.376;2023-02-14T03:15:40;1.40;99.90
56374;DHT22;58212;47.034;7.376;2023-02-14T03:18:16;1.60;99.90
56374;DHT22;58212;47.034;7.376;2023-02-14T03:21:18;1.60;99.90
56374;DHT22;58212;47.034;7.376;2023-02-14T03:23:55;1.60;99.90
56374;DHT22;58212;47.034;7.376;2023-02-14T03:26:27;1.60;99.90
56374;DHT22;58212;47.034;7.376;2023-02-14T03:29:00;1.80;99.90
56374;DHT22;58212;47.034;7.376;2023-02-14T03:31:35;1.70;99.90
56374;DHT22;58212;47.034;7.376;2023-02-14T03:34:09;1.60;99.90
56374;DHT22;58212;47.034;7.376;2023-02-14T03:36:40;1.50;99.90
56374;DHT22;58212;47.034;7.376;2023-02-14T03:39:15;1.50;99.90
56374;DHT22;58212;47.034;7.376;2023-02-14T03:41:52;1.60;99.90
56374;DHT22;58212;47.034;7.376;2023-02-14T03:44:22;1.60;99.90
56374;DHT22;58212;47.034;7.376;2023-02-14T03:46:56;1.50;99.90
56374;DHT22;58212;47.034;7.376;2023-02-14T03:49:27;1.60;99.90
56374;DHT22;58212;47.034;7.376;2023-02-14T03:51:57;1.60;99.90
56374;DHT22;58212;47.034;7.376;2023-02-14T03:54:27;1.60;99.90
56374;DHT22;58212;47.034;7.376;2023-02-14T03:57:03;1.50;99.90
56374;DHT22;58212;47.034;7.376;2023-02-14T03:59:33;1.60;99.90
56374;DHT22;58212;47.034;7.376;2023-02-14T04:02:04;1.70;99.90
56374;DHT22;58212;47.034;7.376;2023-02-14T04:04:35;1.70;99.90
56374;DHT22;58212;47.034;7.376;2023-02-14T04:07:09;1.70;99.90
56374;DHT22;58212;47.034;7.376;2023-02-14T04:09:38;1.60;99.90
56374;DHT22;58212;47.034;7.376;2023-02-14T04:12:07;1.50;99.90
56374;DHT22;58212;47.034;7.376;2023-02-14T04:14:34;1.50;99.90
56374;DHT22;58212;47.034;7.376;2023-02-14T04:17:02;1.40;99.90
56374;DHT22;58212;47.034;7.376;2023-02-14T04:19:46;1.40;99.90
56374;DHT22;58212;47.034;7.376;2023-02-14T04:22:14;1.20;99.90
56374;DHT22;58212;47.034;7.376;2023-02-14T04:24:44;1.20;99.90
56374;DHT22;58212;47.034;7.376;2023-02-14T04:27:11;1.20;99.90
56374;DHT22;58212;47.034;7.376;2023-02-14T04:29:39;1.40;99.90
56374;DHT22;58212;47.034;7.376;2023-02-14T04:32:08;1.50;99.90
56374;DHT22;58212;47.034;7.376;2023-02-14T04:34:37;1.40;99.90
56374;DHT22;58212;47.034;7.376;2023-02-14T04:37:05;1.40;99.90
56374;DHT22;58212;47.034;7.376;2023-02-14T04:39:32;1.40;99.90
56374;DHT22;58212;47.034;7.376;2023-02-14T04:42:01;1.30;99.90
56374;DHT22;58212;47.034;7.376;2023-02-14T04:44:29;1.20;99.90
56374;DHT22;58212;47.034;7.376;2023-02-14T04:46:56;1.20;99.90
56374;DHT22;58212;47.034;7.376;2023-02-14T04:49:22;1.20;99.90
56374;DHT22;58212;47.034;7.376;2023-02-14T04:51:49;1.20;99.90
56374;DHT22;58212;47.034;7.376;2023-02-14T04:54:16;1.20;99.90
56374;DHT22;58212;47.034;7.376;2023-02-14T04:56:43;1.20;99.90
56374;DHT22;58212;47.034;7.376;2023-02-14T04:59:13;1.20;99.90
56374;DHT22;58212;47.034;7.376;2023-02-14T05:01:40;0.90;99.90
56374;DHT22;58212;47.034;7.376;2023-02-14T05:04:07;0.70;99.90
56374;DHT22;58212;47.034;7.376;2023-02-14T05:06:34;0.80;99.90
56374;DHT22;58212;47.034;7.376;2023-02-14T05:09:01;0.80;99.90
56374;DHT22;58212;47.034;7.376;2023-02-14T05:11:28;1.00;99.90
56374;DHT22;58212;47.034;7.376;2023-02-14T05:13:55;1.20;99.90
56374;DHT22;58212;47.034;7.376;2023-02-14T05:16:24;1.30;99.90
56374;DHT22;58212;47.034;7.376;2023-02-14T05:18:51;1.30;99.90
56374;DHT22;58212;47.034;7.376;2023-02-14T05:21:18;1.00;99.90
56374;DHT22;58212;47.034;7.376;2023-02-14T05:23:45;0.60;99.90
56374;DHT22;58212;47.034;7.376;2023-02-14T05:26:13;0.60;99.90
56374;DHT22;58212;47.034;7.376;2023-02-14T05:28:40;0.60;99.90
56374;DHT22;58212;47.034;7.376;2023-02-14T05:31:07;0.60;99.90
56374;DHT22;58212;47.034;7.376;2023-02-14T05:33:36;0.60;99.90
56374;DHT22;58212;47.034;7.376;2023-02-14T05:36:03;0.70;99.90
56374;DHT22;58212;47.034;7.376;2023-02-14T05:38:31;0.80;99.90
56374;DHT22;58212;47.034;7.376;2023-02-14T05:40:59;0.70;99.90
56374;DHT22;58212;47.034;7.376;2023-02-14T05:43:26;0.70;99.90
56374;DHT22;58212;47.034;7.376;2023-02-14T05:45:54;0.70;99.90
56374;DHT22;58212;47.034;7.376;2023-02-14T05:48:22;0.50;99.90
56374;DHT22;58212;47.034;7.376;2023-02-14T05:50:51;0.60;99.90
56374;DHT22;58212;47.034;7.376;2023-02-14T05:53:18;0.70;99.90
56374;DHT22;58212;47.034;7.376;2023-02-14T05:55:46;0.70;99.90
56374;DHT22;58212;47.034;7.376;2023-02-14T05:58:13;0.80;99.90
56374;DHT22;58212;47.034;7.376;2023-02-14T06:00:40;0.70;99.90
56374;DHT22;58212;47.034;7.376;2023-02-14T06:03:07;0.70;99.90
56374;DHT22;58212;47.034;7.376;2023-02-14T06:05:34;0.60;99.90
56374;DHT22;58212;47.034;7.376;2023-02-14T06:08:02;0.70;99.90
56374;DHT22;58212;47.034;7.376;2023-02-14T06:10:30;0.90;99.90
56374;DHT22;58212;47.034;7.376;2023-02-14T06:12:57;1.00;99.90
56374;DHT22;58212;47.034;7.376;2023-02-14T06:15:24;1.10;99.90
56374;DHT22;58212;47.034;7.376;2023-02-14T06:17:52;1.00;99.90
56374;DHT22;58212;47.034;7.376;2023-02-14T06:20:19;0.40;99.90
56374;DHT22;58212;47.034;7.376;2023-02-14T06:22:46;0.10;99.90
56374;DHT22;58212;47.034;7.376;2023-02-14T06:25:15;0.00;99.90
56374;DHT22;58212;47.034;7.376;2023-02-14T06:27:42;0.10;99.90
56374;DHT22;58212;47.034;7.376;2023-02-14T06:30:10;0.10;99.90
56374;DHT22;58212;47.034;7.376;2023-02-14T06:32:37;-0.20;99.90
56374;DHT22;58212;47.034;7.376;2023-02-14T06:35:05;-0.10;99.90
56374;DHT22;58212;47.034;7.376;2023-02-14T06:37:32;-0.20;99.90
56374;DHT22;58212;47.034;7.376;2023-02-14T06:40:00;-0.10;99.90
56374;DHT22;58212;47.034;7.376;2023-02-14T06:42:28;-0.10;99.90
56374;DHT22;58212;47.034;7.376;2023-02-14T06:44:55;-0.10;99.90
56374;DHT22;58212;47.034;7.376;2023-02-14T06:47:22;0.10;99.90
56374;DHT22;58212;47.034;7.376;2023-02-14T06:49:49;0.20;99.90
56374;DHT22;58212;47.034;7.376;2023-02-14T06:52:16;0.30;99.90
56374;DHT22;58212;47.034;7.376;2023-02-14T06:54:44;-0.40;99.90
56374;DHT22;58212;47.034;7.376;2023-02-14T06:57:12;-0.30;99.90
56374;DHT22;58212;47.034;7.376;2023-02-14T06:59:41;-0.50;99.90
56374;DHT22;58212;47.034;7.376;2023-02-14T07:02:09;-0.60;99.90
56374;DHT22;58212;47.034;7.376;2023-02-14T07:04:35;-0.50;99.90
56374;DHT22;58212;47.034;7.376;2023-02-14T07:07:03;-0.60;99.90
56374;DHT22;58212;47.034;7.376;2023-02-14T07:09:30;-0.40;99.90
56374;DHT22;58212;47.034;7.376;2023-02-14T07:11:57;-0.30;99.90
56374;DHT22;58212;47.034;7.376;2023-02-14T07:14:25;-0.50;99.90
56374;DHT22;58212;47.034;7.376;2023-02-14T07:16:54;-0.30;99.90
56374;DHT22;58212;47.034;7.376;2023-02-14T07:19:21;-0.80;99.90
56374;DHT22;58212;47.034;7.376;2023-02-14T07:21:48;-0.80;99.90
56374;DHT22;58212;47.034;7.376;2023-02-14T07:24:15;-0.60;99.90
56374;DHT22;58212;47.034;7.376;2023-02-14T07:26:42;-0.40;99.90
56374;DHT22;58212;47.034;7.376;2023-02-14T07:29:10;-0.50;99.90
56374;DHT22;58212;47.034;7.376;2023-02-14T07:31:37;-0.90;99.90
56374;DHT22;58212;47.034;7.376;2023-02-14T07:34:05;-1.00;99.90
56374;DHT22;58212;47.034;7.376;2023-02-14T07:36:32;-0.60;99.90
56374;DHT22;58212;47.034;7.376;2023-02-14T07:38:59;-0.50;99.90
56374;DHT22;58212;47.034;7.376;2023-02-14T07:41:26;-0.30;99.90
56374;DHT22;58212;47.034;7.376;2023-02-14T07:43:53;0.10;99.90
56374;DHT22;58212;47.034;7.376;2023-02-14T07:46:21;-0.10;99.90
56374;DHT22;58212;47.034;7.376;2023-02-14T07:48:48;0.10;99.90
56374;DHT22;58212;47.034;7.376;2023-02-14T07:51:17;0.20;99.90
56374;DHT22;58212;47.034;7.376;2023-02-14T07:53:44;0.30;99.90
56374;DHT22;58212;47.034;7.376;2023-02-14T07:56:11;0.20;99.90
56374;DHT22;58212;47.034;7.376;2023-02-14T07:58:38;0.20;99.90
56374;DHT22;58212;47.034;7.376;2023-02-14T08:01:05;0.20;99.90
56374;DHT22;58212;47.034;7.376;2023-02-14T08:03:32;0.30;99.90
56374;DHT22;58212;47.034;7.376;2023-02-14T08:05:59;0.10;99.90
56374;DHT22;58212;47.034;7.376;2023-02-14T08:08:29;0.10;99.90
56374;DHT22;58212;47.034;7.376;2023-02-14T08:10:57;0.30;99.90
56374;DHT22;58212;47.034;7.376;2023-02-14T08:13:24;0.40;99.90
56374;DHT22;58212;47.034;7.376;2023-02-14T08:15:51;0.40;99.90
56374;DHT22;58212;47.034;7.376;2023-02-14T08:18:32;0.50;99.90
56374;DHT22;58212;47.034;7.376;2023-02-14T08:20:59;0.70;99.90
56374;DHT22;58212;47.034;7.376;2023-02-14T08:23:28;0.80;99.90
56374;DHT22;58212;47.034;7.376;2023-02-14T08:25:56;0.80;99.90
56374;DHT22;58212;47.034;7.376;2023-02-14T08:28:24;0.90;99.90
56374;DHT22;58212;47.034;7.376;2023-02-14T08:30:51;0.90;99.90
56374;DHT22;58212;47.034;7.376;2023-02-14T08:33:18;0.80;99.90
56374;DHT22;58212;47.034;7.376;2023-02-14T08:35:46;0.80;99.90
56374;DHT22;58212;47.034;7.376;2023-02-14T08:38:13;0.80;99.90
56374;DHT22;58212;47.034;7.376;2023-02-14T08:40:41;1.00;99.90
56374;DHT22;58212;47.034;7.376;2023-02-14T08:43:08;1.00;99.90
56374;DHT22;58212;47.034;7.376;2023-02-14T08:45:36;1.00;99.90
56374;DHT22;58212;47.034;7.376;2023-02-14T08:48:05;1.00;99.90
56374;DHT22;58212;47.034;7.376;2023-02-14T08:50:34;0.70;99.90
56374;DHT22;58212;47.034;7.376;2023-02-14T08:53:05;0.50;99.90
56374;DHT22;58212;47.034;7.376;2023-02-14T08:55:33;0.20;99.90
56374;DHT22;58212;47.034;7.376;2023-02-14T08:58:01;0.30;99.90
56374;DHT22;58212;47.034;7.376;2023-02-14T09:00:28;0.60;99.90
56374;DHT22;58212;47.034;7.376;2023-02-14T09:02:55;0.70;99.90
56374;DHT22;58212;47.034;7.376;2023-02-14T09:05:22;0.70;99.90
56374;DHT22;58212;47.034;7.376;2023-02-14T09:07:50;0.70;99.90
56374;DHT22;58212;47.034;7.376;2023-02-14T09:10:17;0.80;99.90
56374;DHT22;58212;47.034;7.376;2023-02-14T09:12:44;1.10;99.90
56374;DHT22;58212;47.034;7.376;2023-02-14T09:15:13;0.90;99.90
56374;DHT22;58212;47.034;7.376;2023-02-14T09:17:39;1.20;99.90
56374;DHT22;58212;47.034;7.376;2023-02-14T09:20:08;1.30;99.90
56374;DHT22;58212;47.034;7.376;2023-02-14T09:22:36;1.70;99.90
56374;DHT22;58212;47.034;7.376;2023-02-14T09:25:04;2.00;99.90
56374;DHT22;58212;47.034;7.376;2023-02-14T09:27:31;2.00;99.90
56374;DHT22;58212;47.034;7.376;2023-02-14T09:29:58;2.00;99.90
56374;DHT22;58212;47.034;7.376;2023-02-14T09:32:28;1.80;99.90
56374;DHT22;58212;47.034;7.376;2023-02-14T09:34:56;2.00;99.90
56374;DHT22;58212;47.034;7.376;2023-02-14T09:37:40;2.30;99.90
56374;DHT22;58212;47.034;7.376;2023-02-14T09:40:08;2.50;99.90
56374;DHT22;58212;47.034;7.376;2023-02-14T09:42:48;2.70;99.90
56374;DHT22;58212;47.034;7.376;2023-02-14T09:45:19;2.90;99.90
56374;DHT22;58212;47.034;7.376;2023-02-14T09:47:51;2.80;99.90
56374;DHT22;58212;47.034;7.376;2023-02-14T09:50:23;2.90;99.90
56374;DHT22;58212;47.034;7.376;2023-02-14T09:52:55;3.10;99.90
56374;DHT22;58212;47.034;7.376;2023-02-14T09:55:25;3.00;99.90
56374;DHT22;58212;47.034;7.376;2023-02-14T09:58:04;3.40;99.90
56374;DHT22;58212;47.034;7.376;2023-02-14T10:00:35;3.20;99.90
56374;DHT22;58212;47.034;7.376;2023-02-14T10:03:34;3.50;99.90
56374;DHT22;58212;47.034;7.376;2023-02-14T10:06:11;3.90;99.90
56374;DHT22;58212;47.034;7.376;2023-02-14T10:08:49;4.00;99.90
56374;DHT22;58212;47.034;7.376;2023-02-14T10:11:21;4.30;99.90
56374;DHT22;58212;47.034;7.376;2023-02-14T10:13:53;4.10;99.90
56374;DHT22;58212;47.034;7.376;2023-02-14T10:16:24;4.10;99.90
56374;DHT22;58212;47.034;7.376;2023-02-14T10:18:59;4.00;99.90
56374;DHT22;58212;47.034;7.376;2023-02-14T10:21:31;3.90;99.90
56374;DHT22;58212;47.034;7.376;2023-02-14T10:24:03;4.20;99.90
56374;DHT22;58212;47.034;7.376;2023-02-14T10:26:36;4.30;99.90
56374;DHT22;58212;47.034;7.376;2023-02-14T10:29:07;4.20;99.90
56374;DHT22;58212;47.034;7.376;2023-02-14T10:31:40;4.40;99.90
56374;DHT22;58212;47.034;7.376;2023-02-14T10:34:19;4.60;99.90
56374;DHT22;58212;47.034;7.376;2023-02-14T10:37:09;4.50;99.90
56374;DHT22;58212;47.034;7.376;2023-02-14T10:39:53;4.90;99.90
56374;DHT22;58212;47.034;7.376;2023-02-14T10:42:28;5.00;99.90
56374;DHT22;58212;47.034;7.376;2023-02-14T10:45:08;5.30;99.90
56374;DHT22;58212;47.034;7.376;2023-02-14T10:47:43;4.90;99.90
56374;DHT22;58212;47.034;7.376;2023-02-14T10:50:18;5.30;99.90
56374;DHT22;58212;47.034;7.376;2023-02-14T10:52:54;5.50;99.90
56374;DHT22;58212;47.034;7.376;2023-02-14T10:55:36;5.50;99.90
56374;DHT22;58212;47.034;7.376;2023-02-14T10:58:05;5.60;99.90
56374;DHT22;58212;47.034;7.376;2023-02-14T11:00:36;5.20;99.90
56374;DHT22;58212;47.034;7.376;2023-02-14T11:03:07;4.90;99.90
56374;DHT22;58212;47.034;7.376;2023-02-14T11:05:39;4.70;99.90
56374;DHT22;58212;47.034;7.376;2023-02-14T11:08:14;5.20;99.90
56374;DHT22;58212;47.034;7.376;2023-02-14T11:10:41;5.00;99.90
56374;DHT22;58212;47.034;7.376;2023-02-14T11:13:27;5.10;99.90
56374;DHT22;58212;47.034;7.376;2023-02-14T11:15:58;5.30;99.90
56374;DHT22;58212;47.034;7.376;2023-02-14T11:18:27;5.30;99.90
56374;DHT22;58212;47.034;7.376;2023-02-14T11:21:02;5.40;99.90
56374;DHT22;58212;47.034;7.376;2023-02-14T11:23:34;5.20;99.90
56374;DHT22;58212;47.034;7.376;2023-02-14T11:26:03;5.40;99.90
56374;DHT22;58212;47.034;7.376;2023-02-14T11:28:31;5.60;99.90
56374;DHT22;58212;47.034;7.376;2023-02-14T11:30:59;5.80;99.90
56374;DHT22;58212;47.034;7.376;2023-02-14T11:33:36;5.80;99.90
56374;DHT22;58212;47.034;7.376;2023-02-14T11:36:09;5.60;99.90
56374;DHT22;58212;47.034;7.376;2023-02-14T11:38:38;5.30;99.90
56374;DHT22;58212;47.034;7.376;2023-02-14T11:41:08;5.40;99.90
56374;DHT22;58212;47.034;7.376;2023-02-14T11:43:37;5.70;99.90
56374;DHT22;58212;47.034;7.376;2023-02-14T11:46:11;5.70;99.90
56374;DHT22;58212;47.034;7.376;2023-02-14T11:48:39;6.00;99.90
56374;DHT22;58212;47.034;7.376;2023-02-14T11:51:26;6.00;99.90
56374;DHT22;58212;47.034;7.376;2023-02-14T11:53:55;6.10;99.90
56374;DHT22;58212;47.034;7.376;2023-02-14T11:56:42;6.20;99.90
56374;DHT22;58212;47.034;7.376;2023-02-14T11:59:13;6.40;99.90
56374;DHT22;58212;47.034;7.376;2023-02-14T12:01:46;6.40;99.90
56374;DHT22;58212;47.034;7.376;2023-02-14T12:04:18;6.50;99.90
56374;DHT22;58212;47.034;7.376;2023-02-14T12:06:46;6.80;99.90
56374;DHT22;58212;47.034;7.376;2023-02-14T12:09:31;6.90;99.90
56374;DHT22;58212;47.034;7.376;2023-02-14T12:12:00;6.80;99.90
56374;DHT22;58212;47.034;7.376;2023-02-14T12:14:29;6.80;99.90
56374;DHT22;58212;47.034;7.376;2023-02-14T12:17:01;6.90;99.90
56374;DHT22;58212;47.034;7.376;2023-02-14T12:19:34;6.90;99.90
56374;DHT22;58212;47.034;7.376;2023-02-14T12:22:07;7.10;99.90
56374;DHT22;58212;47.034;7.376;2023-02-14T12:24:42;7.30;99.90
56374;DHT22;58212;47.034;7.376;2023-02-14T12:27:17;7.40;99.90
56374;DHT22;58212;47.034;7.376;2023-02-14T12:29:49;7.10;99.90
56374;DHT22;58212;47.034;7.376;2023-02-14T12:32:21;7.40;99.90
56374;DHT22;58212;47.034;7.376;2023-02-14T12:34:49;7.50;99.90
56374;DHT22;58212;47.034;7.376;2023-02-14T12:37:27;7.70;99.90
56374;DHT22;58212;47.034;7.376;2023-02-14T12:40:17;7.70;99.90
56374;DHT22;58212;47.034;7.376;2023-02-14T12:43:05;7.70;99.90
56374;DHT22;58212;47.034;7.376;2023-02-14T12:52:55;7.80;99.90
56374;DHT22;58212;47.034;7.376;2023-02-14T12:55:35;7.90;99.90
56374;DHT22;58212;47.034;7.376;2023-02-14T12:58:16;7.90;99.90
56374;DHT22;58212;47.034;7.376;2023-02-14T13:00:51;7.90;99.90
56374;DHT22;58212;47.034;7.376;2023-02-14T13:06:19;8.30;99.90
56374;DHT22;58212;47.034;7.376;2023-02-14T13:09:18;8.20;99.90
56374;DHT22;58212;47.034;7.376;2023-02-14T13:11:59;8.20;99.90
56374;DHT22;58212;47.034;7.376;2023-02-14T13:14:40;8.30;99.90
56374;DHT22;58212;47.034;7.376;2023-02-14T13:17:16;8.30;99.90
56374;DHT22;58212;47.034;7.376;2023-02-14T13:19:53;8.40;99.90
56374;DHT22;58212;47.034;7.376;2023-02-14T13:22:24;8.50;99.90
56374;DHT22;58212;47.034;7.376;2023-02-14T13:24:55;8.40;99.90
56374;DHT22;58212;47.034;7.376;2023-02-14T13:27:27;8.40;99.90
56374;DHT22;58212;47.034;7.376;2023-02-14T13:29:59;8.40;99.90
56374;DHT22;58212;47.034;7.376;2023-02-14T13:32:30;8.40;99.90
56374;DHT22;58212;47.034;7.376;2023-02-14T13:34:58;8.60;99.90
56374;DHT22;58212;47.034;7.376;2023-02-14T13:37:27;8.50;99.90
56374;DHT22;58212;47.034;7.376;2023-02-14T13:39:58;8.50;99.90
56374;DHT22;58212;47.034;7.376;2023-02-14T13:42:52;8.60;99.90
56374;DHT22;58212;47.034;7.376;2023-02-14T13:45:50;8.60;99.90
56374;DHT22;58212;47.034;7.376;2023-02-14T13:48:18;8.80;99.90
56374;DHT22;58212;47.034;7.376;2023-02-14T13:50:50;8.90;99.90
56374;DHT22;58212;47.034;7.376;2023-02-14T13:53:39;8.80;99.90
56374;DHT22;58212;47.034;7.376;2023-02-14T13:56:32;8.80;99.90
56374;DHT22;58212;47.034;7.376;2023-02-14T13:59:02;8.90;99.90
56374;DHT22;58212;47.034;7.376;2023-02-14T14:01:33;9.00;99.90
56374;DHT22;58212;47.034;7.376;2023-02-14T14:04:05;8.90;99.90
56374;DHT22;58212;47.034;7.376;2023-02-14T14:07:14;8.90;99.90
56374;DHT22;58212;47.034;7.376;2023-02-14T14:09:52;9.00;99.90
56374;DHT22;58212;47.034;7.376;2023-02-14T14:12:40;9.10;99.90
56374;DHT22;58212;47.034;7.376;2023-02-14T14:15:16;9.00;99.90
56374;DHT22;58212;47.034;7.376;2023-02-14T14:20:40;8.80;99.90
56374;DHT22;58212;47.034;7.376;2023-02-14T14:23:28;8.70;99.90
56374;DHT22;58212;47.034;7.376;2023-02-14T14:25:55;8.70;99.90
56374;DHT22;58212;47.034;7.376;2023-02-14T14:28:25;8.60;99.90
56374;DHT22;58212;47.034;7.376;2023-02-14T14:30:54;8.50;99.90
56374;DHT22;58212;47.034;7.376;2023-02-14T14:33:26;8.60;99.90
56374;DHT22;58212;47.034;7.376;2023-02-14T14:35:55;8.40;99.90
56374;DHT22;58212;47.034;7.376;2023-02-14T14:38:22;8.30;99.90
56374;DHT22;58212;47.034;7.376;2023-02-14T14:40:49;8.10;99.90
56374;DHT22;58212;47.034;7.376;2023-02-14T14:43:26;8.00;99.90
56374;DHT22;58212;47.034;7.376;2023-02-14T14:45:56;7.90;99.90
56374;DHT22;58212;47.034;7.376;2023-02-14T14:48:27;8.00;99.90
56374;DHT22;58212;47.034;7.376;2023-02-14T14:50:55;7.90;99.90
56374;DHT22;58212;47.034;7.376;2023-02-14T14:53:26;7.80;99.90
56374;DHT22;58212;47.034;7.376;2023-02-14T14:55:55;7.70;99.90
56374;DHT22;58212;47.034;7.376;2023-02-14T14:58:40;7.60;99.90
56374;DHT22;58212;47.034;7.376;2023-02-14T15:01:10;7.40;99.90
56374;DHT22;58212;47.034;7.376;2023-02-14T15:03:40;7.40;99.90
56374;DHT22;58212;47.034;7.376;2023-02-14T15:06:14;7.40;99.90
56374;DHT22;58212;47.034;7.376;2023-02-14T15:08:43;7.30;99.90
56374;DHT22;58212;47.034;7.376;2023-02-14T15:11:13;7.20;99.90
56374;DHT22;58212;47.034;7.376;2023-02-14T15:14:05;7.10;99.90
56374;DHT22;58212;47.034;7.376;2023-02-14T15:16:39;7.00;99.90
56374;DHT22;58212;47.034;7.376;2023-02-14T15:19:09;6.90;99.90
56374;DHT22;58212;47.034;7.376;2023-02-14T15:21:39;6.80;99.90
56374;DHT22;58212;47.034;7.376;2023-02-14T15:24:09;6.70;99.90
56374;DHT22;58212;47.034;7.376;2023-02-14T15:26:38;6.70;99.90
56374;DHT22;58212;47.034;7.376;2023-02-14T15:29:20;6.70;99.90
56374;DHT22;58212;47.034;7.376;2023-02-14T15:31:48;6.70;99.90
56374;DHT22;58212;47.034;7.376;2023-02-14T15:34:17;6.60;99.90
56374;DHT22;58212;47.034;7.376;2023-02-14T15:36:45;6.60;99.90
56374;DHT22;58212;47.034;7.376;2023-02-14T15:39:19;6.40;99.90
56374;DHT22;58212;47.034;7.376;2023-02-14T15:41:47;6.40;99.90
56374;DHT22;58212;47.034;7.376;2023-02-14T15:44:22;6.40;99.90
56374;DHT22;58212;47.034;7.376;2023-02-14T15:46:53;6.40;99.90
56374;DHT22;58212;47.034;7.376;2023-02-14T15:49:23;6.50;99.90
56374;DHT22;58212;47.034;7.376;2023-02-14T15:51:53;6.50;99.90
56374;DHT22;58212;47.034;7.376;2023-02-14T15:54:27;6.60;99.90
56374;DHT22;58212;47.034;7.376;2023-02-14T15:56:55;6.70;99.90
56374;DHT22;58212;47.034;7.376;2023-02-14T15:59:26;6.60;99.90
56374;DHT22;58212;47.034;7.376;2023-02-14T16:01:59;6.50;99.90
56374;DHT22;58212;47.034;7.376;2023-02-14T16:04:28;6.40;99.90
56374;DHT22;58212;47.034;7.376;2023-02-14T16:07:15;6.40;99.90
56374;DHT22;58212;47.034;7.376;2023-02-14T16:09:46;6.20;99.90
56374;DHT22;58212;47.034;7.376;2023-02-14T16:12:29;6.20;99.90
56374;DHT22;58212;47.034;7.376;2023-02-14T16:15:16;6.30;99.90
56374;DHT22;58212;47.034;7.376;2023-02-14T16:17:45;6.30;99.90
56374;DHT22;58212;47.034;7.376;2023-02-14T16:20:21;6.20;99.90
56374;DHT22;58212;47.034;7.376;2023-02-14T16:22:48;6.20;99.90
56374;DHT22;58212;47.034;7.376;2023-02-14T16:25:16;6.10;99.90
56374;DHT22;58212;47.034;7.376;2023-02-14T16:27:43;6.10;99.90
56374;DHT22;58212;47.034;7.376;2023-02-14T16:30:17;6.00;99.90
56374;DHT22;58212;47.034;7.376;2023-02-14T16:32:48;6.00;99.90
56374;DHT22;58212;47.034;7.376;2023-02-14T16:35:19;6.00;99.90